createdAt,value
2018-05-16T00:00:54.647Z,12.2
2018-05-16T00:02:01.849Z,12.1
2018-05-16T00:03:09.055Z,12.1
2018-05-16T00:04:16.257Z,12.1
2018-05-16T00:05:23.461Z,12.1
2018-05-16T00:06:30.677Z,12.1
2018-05-16T00:07:37.879Z,12.1
2018-05-16T00:08:44.810Z,12.1
2018-05-16T00:09:51.745Z,12.1
2018-05-16T00:10:58.942Z,12.1
2018-05-16T00:12:05.875Z,12.1
2018-05-16T00:13:13.076Z,12
2018-05-16T00:14:20.283Z,12.1
2018-05-16T00:15:27.487Z,12.1
2018-05-16T00:16:34.694Z,12.1
2018-05-16T00:17:41.896Z,12.1
2018-05-16T00:18:49.180Z,12.1
2018-05-16T00:19:56.382Z,12.1
2018-05-16T00:21:03.591Z,12.1
2018-05-16T00:22:10.796Z,12.1
2018-05-16T00:23:17.992Z,12.1
2018-05-16T00:24:25.193Z,12.1
2018-05-16T00:25:32.399Z,12.1
2018-05-16T00:26:39.600Z,12.1
2018-05-16T00:27:46.804Z,12.1
2018-05-16T00:28:54.009Z,12.1
2018-05-16T00:30:01.218Z,12.1
2018-05-16T00:31:08.155Z,12.2
2018-05-16T00:32:15.365Z,12.1
2018-05-16T00:33:22.567Z,12.1
2018-05-16T00:34:29.800Z,12.2
2018-05-16T00:35:37.000Z,12.1
2018-05-16T00:36:44.205Z,12.1
2018-05-16T00:37:51.418Z,12.1
2018-05-16T00:38:58.618Z,12.1
2018-05-16T00:40:05.819Z,12.1
2018-05-16T00:41:12.744Z,12.1
2018-05-16T00:42:19.949Z,12.1
2018-05-16T00:43:27.153Z,12.1
2018-05-16T00:44:34.363Z,12
2018-05-16T00:45:41.569Z,12
2018-05-16T00:46:48.773Z,12
2018-05-16T00:47:55.977Z,12
2018-05-16T00:49:02.997Z,11.9
2018-05-16T00:50:09.954Z,12
2018-05-16T00:51:17.158Z,11.9
2018-05-16T00:52:24.367Z,12
2018-05-16T00:53:31.577Z,12
2018-05-16T00:54:38.780Z,11.9
2018-05-16T00:55:45.978Z,11.9
2018-05-16T00:56:53.178Z,11.9
2018-05-16T00:58:00.380Z,11.8
2018-05-16T00:59:07.583Z,11.8
2018-05-16T01:00:14.788Z,11.8
2018-05-16T01:01:22.008Z,11.8
2018-05-16T01:02:29.231Z,11.8
2018-05-16T01:03:36.439Z,11.7
2018-05-16T01:04:43.644Z,11.8
2018-05-16T01:05:50.581Z,11.8
2018-05-16T01:06:57.784Z,11.8
2018-05-16T01:08:04.989Z,11.9
2018-05-16T01:09:12.201Z,11.8
2018-05-16T01:10:19.404Z,11.8
2018-05-16T01:11:26.331Z,11.9
2018-05-16T01:12:33.536Z,11.9
2018-05-16T01:13:40.736Z,11.9
2018-05-16T01:14:47.936Z,11.9
2018-05-16T01:15:55.153Z,11.9
2018-05-16T01:17:02.353Z,11.9
2018-05-16T01:18:09.564Z,11.9
2018-05-16T01:19:16.766Z,11.9
2018-05-16T01:20:23.969Z,12
2018-05-16T01:21:31.177Z,11.9
2018-05-16T01:22:38.387Z,11.9
2018-05-16T01:23:45.601Z,11.9
2018-05-16T01:24:52.815Z,12
2018-05-16T01:26:00.018Z,11.9
2018-05-16T01:27:07.223Z,11.9
2018-05-16T01:28:14.154Z,12
2018-05-16T01:29:21.362Z,12
2018-05-16T01:30:28.573Z,12
2018-05-16T01:31:35.783Z,11.9
2018-05-16T01:32:42.985Z,11.9
2018-05-16T01:33:50.190Z,11.9
2018-05-16T01:34:57.394Z,12
2018-05-16T01:36:04.755Z,11.9
2018-05-16T01:37:11.964Z,11.9
2018-05-16T01:38:19.165Z,12
2018-05-16T01:39:26.372Z,12
2018-05-16T01:40:33.568Z,12
2018-05-16T01:41:40.767Z,12
2018-05-16T01:42:47.970Z,11.9
2018-05-16T01:43:54.629Z,12
2018-05-16T01:45:01.838Z,12
2018-05-16T01:46:09.039Z,12
2018-05-16T01:47:16.254Z,11.9
2018-05-16T01:48:23.458Z,11.9
2018-05-16T01:49:30.663Z,11.9
2018-05-16T01:50:37.867Z,11.9
2018-05-16T01:51:45.075Z,11.9
2018-05-16T01:52:52.013Z,11.9
2018-05-16T01:53:59.214Z,11.9
2018-05-16T01:55:06.419Z,11.9
2018-05-16T01:56:13.625Z,11.9
2018-05-16T01:57:20.831Z,11.9
2018-05-16T01:58:28.036Z,11.9
2018-05-16T01:59:35.238Z,11.8
2018-05-16T02:00:42.443Z,11.8
2018-05-16T02:01:49.642Z,11.8
2018-05-16T02:02:56.850Z,11.8
2018-05-16T02:04:04.051Z,11.8
2018-05-16T02:05:11.251Z,11.8
2018-05-16T02:06:18.452Z,11.8
2018-05-16T02:07:25.652Z,11.8
2018-05-16T02:08:32.853Z,11.9
2018-05-16T02:09:40.058Z,11.9
2018-05-16T02:10:47.281Z,11.9
2018-05-16T02:11:54.483Z,11.9
2018-05-16T02:13:01.416Z,11.9
2018-05-16T02:14:08.621Z,11.9
2018-05-16T02:15:15.825Z,11.9
2018-05-16T02:16:23.026Z,12
2018-05-16T02:17:29.953Z,11.9
2018-05-16T02:18:37.185Z,11.9
2018-05-16T02:19:44.370Z,11.9
2018-05-16T02:20:51.305Z,11.9
2018-05-16T02:21:58.506Z,11.9
2018-05-16T02:23:05.716Z,11.9
2018-05-16T02:24:12.915Z,11.9
2018-05-16T02:25:20.119Z,11.9
2018-05-16T02:26:27.045Z,11.9
2018-05-16T02:27:34.183Z,11.9
2018-05-16T02:28:41.390Z,11.9
2018-05-16T02:29:48.589Z,11.9
2018-05-16T02:30:55.522Z,12
2018-05-16T02:32:02.725Z,11.9
2018-05-16T02:33:09.657Z,11.9
2018-05-16T02:34:16.872Z,11.9
2018-05-16T02:35:24.075Z,11.9
2018-05-16T02:36:31.021Z,11.8
2018-05-16T02:37:38.215Z,11.9
2018-05-16T02:38:45.419Z,11.9
2018-05-16T02:39:52.649Z,11.9
2018-05-16T02:40:59.868Z,11.9
2018-05-16T02:42:07.071Z,11.9
2018-05-16T02:43:14.311Z,11.8
2018-05-16T02:44:21.516Z,11.8
2018-05-16T02:45:28.719Z,11.8
2018-05-16T02:46:35.927Z,11.8
2018-05-16T02:47:43.133Z,11.8
2018-05-16T02:48:50.340Z,11.8
2018-05-16T02:49:57.545Z,11.8
2018-05-16T02:51:04.748Z,11.8
2018-05-16T02:52:11.961Z,11.8
2018-05-16T02:53:18.895Z,11.9
2018-05-16T02:54:26.339Z,11.9
2018-05-16T02:55:33.781Z,11.9
2018-05-16T02:56:40.711Z,11.9
2018-05-16T02:57:47.926Z,11.9
2018-05-16T02:58:55.134Z,11.9
2018-05-16T03:00:02.081Z,11.9
2018-05-16T03:01:09.272Z,11.8
2018-05-16T03:02:16.480Z,11.8
2018-05-16T03:03:23.680Z,11.8
2018-05-16T03:04:30.883Z,11.8
2018-05-16T03:05:38.089Z,11.8
2018-05-16T03:06:45.293Z,11.9
2018-05-16T03:07:52.493Z,11.9
2018-05-16T03:08:59.694Z,11.9
2018-05-16T03:10:06.899Z,11.8
2018-05-16T03:11:14.100Z,11.8
2018-05-16T03:12:21.388Z,11.8
2018-05-16T03:13:28.601Z,11.8
2018-05-16T03:14:35.791Z,11.8
2018-05-16T03:15:42.994Z,11.8
2018-05-16T03:16:50.200Z,11.8
2018-05-16T03:17:57.404Z,11.9
2018-05-16T03:19:04.606Z,11.9
2018-05-16T03:20:11.535Z,11.9
2018-05-16T03:21:18.745Z,11.9
2018-05-16T03:22:25.945Z,11.9
2018-05-16T03:23:33.141Z,11.9
2018-05-16T03:24:40.361Z,11.9
2018-05-16T03:25:47.562Z,11.9
2018-05-16T03:26:54.767Z,11.8
2018-05-16T03:28:01.970Z,11.8
2018-05-16T03:29:09.171Z,11.8
2018-05-16T03:30:16.372Z,11.8
2018-05-16T03:31:23.299Z,11.8
2018-05-16T03:32:30.509Z,11.8
2018-05-16T03:33:37.709Z,11.8
2018-05-16T03:34:44.633Z,11.8
2018-05-16T03:35:51.838Z,11.8
2018-05-16T03:36:59.040Z,11.8
2018-05-16T03:38:06.247Z,11.9
2018-05-16T03:39:13.457Z,11.9
2018-05-16T03:40:20.668Z,11.9
2018-05-16T03:41:27.885Z,11.9
2018-05-16T03:42:35.089Z,11.9
2018-05-16T03:43:42.297Z,11.9
2018-05-16T03:44:49.506Z,11.8
2018-05-16T03:45:56.705Z,11.8
2018-05-16T03:47:03.918Z,11.8
2018-05-16T03:48:11.122Z,11.8
2018-05-16T03:49:18.337Z,11.8
2018-05-16T03:50:25.532Z,11.8
2018-05-16T03:51:32.732Z,11.8
2018-05-16T03:52:39.931Z,11.8
2018-05-16T03:53:47.130Z,11.8
2018-05-16T03:54:54.332Z,11.9
2018-05-16T03:56:01.285Z,11.9
2018-05-16T03:57:08.490Z,11.9
2018-05-16T03:58:15.923Z,11.9
2018-05-16T03:59:23.116Z,11.9
2018-05-16T04:00:30.316Z,11.9
2018-05-16T04:01:37.522Z,11.9
2018-05-16T04:02:44.729Z,11.9
2018-05-16T04:03:51.929Z,11.9
2018-05-16T04:04:59.372Z,11.9
2018-05-16T04:06:06.576Z,11.9
2018-05-16T04:07:13.775Z,11.9
2018-05-16T04:08:20.977Z,11.9
2018-05-16T04:09:28.179Z,11.9
2018-05-16T04:10:35.381Z,11.9
2018-05-16T04:11:42.587Z,11.9
2018-05-16T04:12:49.793Z,11.9
2018-05-16T04:13:57.000Z,12
2018-05-16T04:15:03.658Z,12
2018-05-16T04:16:10.887Z,12
2018-05-16T04:17:18.092Z,12
2018-05-16T04:18:25.295Z,11.9
2018-05-16T04:19:32.225Z,11.9
2018-05-16T04:20:39.424Z,11.9
2018-05-16T04:21:46.634Z,11.9
2018-05-16T04:22:53.836Z,11.9
2018-05-16T04:24:01.102Z,12
2018-05-16T04:25:08.042Z,12
2018-05-16T04:26:15.252Z,12
2018-05-16T04:27:22.453Z,12
2018-05-16T04:28:29.655Z,12
2018-05-16T04:29:36.862Z,12
2018-05-16T04:30:44.063Z,12
2018-05-16T04:31:50.988Z,12
2018-05-16T04:32:58.197Z,12
2018-05-16T04:34:04.853Z,12
2018-05-16T04:35:12.053Z,12
2018-05-16T04:36:19.254Z,12
2018-05-16T04:37:26.455Z,12
2018-05-16T04:38:33.389Z,12
2018-05-16T04:39:40.601Z,12
2018-05-16T04:40:47.809Z,12
2018-05-16T04:41:55.012Z,12
2018-05-16T04:43:02.273Z,12
2018-05-16T04:44:09.481Z,12
2018-05-16T04:45:16.680Z,12
2018-05-16T04:46:23.879Z,12.1
2018-05-16T04:47:31.101Z,12.1
2018-05-16T04:48:38.336Z,12.1
2018-05-16T04:49:45.269Z,12.1
2018-05-16T04:50:52.472Z,12.2
2018-05-16T04:51:59.696Z,12.1
2018-05-16T04:53:06.937Z,12.1
2018-05-16T04:54:14.146Z,12.1
2018-05-16T04:55:21.347Z,12.2
2018-05-16T04:56:28.552Z,12.2
2018-05-16T04:57:35.753Z,12.2
2018-05-16T04:58:42.960Z,12.2
2018-05-16T04:59:50.170Z,12.2
2018-05-16T05:00:57.451Z,12.2
2018-05-16T05:02:04.464Z,12.1
2018-05-16T05:03:11.666Z,12.1
2018-05-16T05:04:18.870Z,12.1
2018-05-16T05:05:26.071Z,12.1
2018-05-16T05:06:33.280Z,12.1
2018-05-16T05:07:40.486Z,12.1
2018-05-16T05:08:47.736Z,12.1
2018-05-16T05:09:55.085Z,12.2
2018-05-16T05:11:02.287Z,12.2
2018-05-16T05:12:09.496Z,12.2
2018-05-16T05:13:16.697Z,12.2
2018-05-16T05:14:23.909Z,12.2
2018-05-16T05:15:31.116Z,12.2
2018-05-16T05:16:38.058Z,12.2
2018-05-16T05:17:45.274Z,12.2
2018-05-16T05:18:52.575Z,12.2
2018-05-16T05:20:00.153Z,12.2
2018-05-16T05:21:07.356Z,12.2
2018-05-16T05:22:14.589Z,12.2
2018-05-16T05:23:21.811Z,12.3
2018-05-16T05:24:29.090Z,12.3
2018-05-16T05:25:36.293Z,12.3
2018-05-16T05:26:43.219Z,12.3
2018-05-16T05:27:50.154Z,12.3
2018-05-16T05:28:57.364Z,12.3
2018-05-16T05:30:04.575Z,12.3
2018-05-16T05:31:11.784Z,12.3
2018-05-16T05:32:18.982Z,12.4
2018-05-16T05:33:26.189Z,12.3
2018-05-16T05:34:33.400Z,12.3
2018-05-16T05:35:40.602Z,12.4
2018-05-16T05:36:47.939Z,12.4
2018-05-16T05:37:55.191Z,12.4
2018-05-16T05:39:02.399Z,12.4
2018-05-16T05:40:09.598Z,12.4
2018-05-16T05:41:16.806Z,12.4
2018-05-16T05:42:24.006Z,12.5
2018-05-16T05:43:30.945Z,12.4
2018-05-16T05:44:38.152Z,12.4
2018-05-16T05:45:45.363Z,12.4
2018-05-16T05:46:52.633Z,12.4
2018-05-16T05:47:59.562Z,12.4
2018-05-16T05:49:06.844Z,12.4
2018-05-16T05:50:14.196Z,12.4
2018-05-16T05:51:21.413Z,12.4
2018-05-16T05:52:28.617Z,12.5
2018-05-16T05:53:35.824Z,12.5
2018-05-16T05:54:43.107Z,12.5
2018-05-16T05:55:50.310Z,12.4
2018-05-16T05:56:57.521Z,12.3
2018-05-16T05:58:04.723Z,12.3
2018-05-16T05:59:11.930Z,12.4
2018-05-16T06:00:19.142Z,12.4
2018-05-16T06:01:26.351Z,12.4
2018-05-16T06:02:33.283Z,12.4
2018-05-16T06:03:40.491Z,12.4
2018-05-16T06:04:47.696Z,12.4
2018-05-16T06:05:54.896Z,12.4
2018-05-16T06:07:02.106Z,12.5
2018-05-16T06:08:09.312Z,12.6
2018-05-16T06:09:16.519Z,12.7
2018-05-16T06:10:23.734Z,12.7
2018-05-16T06:11:31.007Z,12.7
2018-05-16T06:12:38.283Z,12.8
2018-05-16T06:13:45.204Z,12.9
2018-05-16T06:14:52.433Z,12.9
2018-05-16T06:15:59.365Z,12.9
2018-05-16T06:17:06.569Z,12.8
2018-05-16T06:18:13.509Z,12.8
2018-05-16T06:19:20.719Z,13
2018-05-16T06:20:27.639Z,13
2018-05-16T06:21:34.850Z,13
2018-05-16T06:22:42.058Z,13.2
2018-05-16T06:23:49.264Z,13.3
2018-05-16T06:24:56.469Z,13.6
2018-05-16T06:26:03.673Z,13.5
2018-05-16T06:27:10.911Z,13.7
2018-05-16T06:28:18.632Z,14.1
2018-05-16T06:29:25.840Z,14.5
2018-05-16T06:30:33.044Z,14.7
2018-05-16T06:31:40.252Z,14.8
2018-05-16T06:32:47.631Z,14.9
2018-05-16T06:33:55.094Z,15
2018-05-16T06:35:02.305Z,15.1
2018-05-16T06:36:09.518Z,14.9
2018-05-16T06:37:16.724Z,15.3
2018-05-16T06:38:23.940Z,15.7
2018-05-16T06:39:31.134Z,15.9
2018-05-16T06:40:38.338Z,15.9
2018-05-16T06:41:45.549Z,15.8
2018-05-16T06:42:52.755Z,15.7
2018-05-16T06:43:59.973Z,15.6
2018-05-16T06:45:07.168Z,15.5
2018-05-16T06:46:14.371Z,15.4
2018-05-16T06:47:21.312Z,15.5
2018-05-16T06:48:28.522Z,15.6
2018-05-16T06:49:35.729Z,15.5
2018-05-16T06:50:42.944Z,15
2018-05-16T06:51:50.147Z,15
2018-05-16T06:52:57.388Z,15
2018-05-16T06:54:04.327Z,15
2018-05-16T06:55:11.538Z,15.1
2018-05-16T06:56:18.769Z,15.2
2018-05-16T06:57:25.731Z,15.4
2018-05-16T06:58:32.933Z,15.7
2018-05-16T06:59:40.148Z,15.6
2018-05-16T07:00:47.353Z,15.4
2018-05-16T07:01:54.283Z,15.5
2018-05-16T07:03:01.485Z,15.5
2018-05-16T07:04:08.911Z,15.6
2018-05-16T07:05:16.356Z,15.6
2018-05-16T07:06:23.566Z,15.6
2018-05-16T07:07:30.774Z,15.9
2018-05-16T07:08:37.994Z,16.1
2018-05-16T07:09:45.279Z,16.5
2018-05-16T07:10:52.485Z,16.9
2018-05-16T07:11:59.424Z,17.2
2018-05-16T07:13:06.360Z,17.3
2018-05-16T07:14:13.568Z,17.3
2018-05-16T07:15:20.776Z,17.4
2018-05-16T07:16:27.986Z,17.2
2018-05-16T07:17:35.187Z,17.2
2018-05-16T07:18:42.398Z,17.4
2018-05-16T07:19:49.637Z,17.6
2018-05-16T07:20:56.825Z,17.6
2018-05-16T07:22:04.029Z,17.6
2018-05-16T07:23:11.236Z,17.6
2018-05-16T07:24:18.440Z,17.6
2018-05-16T07:25:25.660Z,17.4
2018-05-16T07:26:32.854Z,17.4
2018-05-16T07:27:40.064Z,17.3
2018-05-16T07:28:47.267Z,17.4
2018-05-16T07:29:54.478Z,17.5
2018-05-16T07:31:01.688Z,17.7
2018-05-16T07:32:08.890Z,17.9
2018-05-16T07:33:16.100Z,18.2
2018-05-16T07:34:23.309Z,18.6
2018-05-16T07:35:30.247Z,18.9
2018-05-16T07:36:37.455Z,19
2018-05-16T07:37:44.668Z,18.8
2018-05-16T07:38:51.897Z,18.8
2018-05-16T07:39:59.104Z,18.8
2018-05-16T07:41:06.444Z,19
2018-05-16T07:42:13.803Z,19.3
2018-05-16T07:43:21.012Z,18.6
2018-05-16T07:44:28.217Z,18.6
2018-05-16T07:45:35.424Z,19
2018-05-16T07:46:42.633Z,19
2018-05-16T07:47:49.837Z,19.1
2018-05-16T07:48:56.768Z,18.9
2018-05-16T07:50:03.976Z,18.8
2018-05-16T07:51:11.294Z,18.3
2018-05-16T07:52:18.609Z,18.1
2018-05-16T07:53:25.810Z,17.7
2018-05-16T07:54:33.019Z,17.4
2018-05-16T07:55:40.231Z,17.6
2018-05-16T07:56:47.169Z,18
2018-05-16T07:57:54.377Z,18.3
2018-05-16T07:59:01.617Z,18.5
2018-05-16T08:00:08.824Z,18.7
2018-05-16T08:01:16.036Z,18.9
2018-05-16T08:02:22.688Z,18.7
2018-05-16T08:03:29.896Z,18.6
2018-05-16T08:04:36.836Z,18.4
2018-05-16T08:05:44.038Z,18.6
2018-05-16T08:06:51.252Z,19
2018-05-16T08:07:58.468Z,19.2
2018-05-16T08:09:05.407Z,19.4
2018-05-16T08:10:12.613Z,19.1
2018-05-16T08:11:19.822Z,19
2018-05-16T08:12:27.040Z,19.1
2018-05-16T08:13:34.258Z,18.9
2018-05-16T08:14:41.199Z,18.5
2018-05-16T08:15:48.409Z,18.5
2018-05-16T08:16:55.616Z,18.4
2018-05-16T08:18:02.827Z,18.4
2018-05-16T08:19:10.041Z,18.3
2018-05-16T08:20:17.260Z,18.1
2018-05-16T08:21:24.473Z,18.1
2018-05-16T08:22:31.686Z,18
2018-05-16T08:23:38.902Z,18.2
2018-05-16T08:24:46.113Z,18
2018-05-16T08:25:53.326Z,17.6
2018-05-16T08:27:00.254Z,17.5
2018-05-16T08:28:07.472Z,17.5
2018-05-16T08:29:14.682Z,18
2018-05-16T08:30:21.889Z,18.5
2018-05-16T08:31:29.100Z,18.6
2018-05-16T08:32:36.318Z,18.7
2018-05-16T08:33:43.262Z,18.6
2018-05-16T08:34:50.473Z,19
2018-05-16T08:35:57.688Z,19.3
2018-05-16T08:37:04.897Z,19.7
2018-05-16T08:38:12.110Z,19.5
2018-05-16T08:39:19.322Z,19.5
2018-05-16T08:40:26.255Z,20
2018-05-16T08:41:33.485Z,20.4
2018-05-16T08:42:40.692Z,20
2018-05-16T08:43:47.901Z,19.5
2018-05-16T08:44:55.110Z,19.4
2018-05-16T08:46:02.323Z,18.6
2018-05-16T08:47:09.528Z,18.4
2018-05-16T08:48:16.457Z,18.5
2018-05-16T08:49:23.666Z,18.7
2018-05-16T08:50:30.882Z,18.5
2018-05-16T08:51:38.120Z,18.1
2018-05-16T08:52:45.330Z,18.1
2018-05-16T08:53:51.996Z,18.2
2018-05-16T08:54:59.203Z,18.5
2018-05-16T08:56:06.411Z,18.7
2018-05-16T08:57:13.366Z,18.6
2018-05-16T08:58:20.308Z,18.8
2018-05-16T08:59:27.520Z,18.9
2018-05-16T09:00:34.731Z,18.8
2018-05-16T09:01:41.948Z,18.8
2018-05-16T09:02:48.885Z,19
2018-05-16T09:03:56.096Z,19.1
2018-05-16T09:05:03.307Z,19
2018-05-16T09:06:10.520Z,19.1
2018-05-16T09:07:17.731Z,19.4
2018-05-16T09:08:24.945Z,19.5
2018-05-16T09:09:32.157Z,19.5
2018-05-16T09:10:39.369Z,19.7
2018-05-16T09:11:46.587Z,20.3
2018-05-16T09:12:53.801Z,20.3
2018-05-16T09:14:01.007Z,20
2018-05-16T09:15:08.216Z,19.7
2018-05-16T09:16:15.434Z,19.6
2018-05-16T09:17:22.833Z,19.9
2018-05-16T09:18:30.470Z,20.4
2018-05-16T09:19:37.684Z,20.8
2018-05-16T09:20:44.892Z,20.9
2018-05-16T09:21:52.108Z,21.1
2018-05-16T09:22:59.322Z,20.4
2018-05-16T09:24:06.534Z,19.8
2018-05-16T09:25:13.957Z,19.8
2018-05-16T09:26:21.326Z,19.6
2018-05-16T09:27:28.544Z,19.5
2018-05-16T09:28:35.752Z,19.5
2018-05-16T09:29:42.964Z,19.5
2018-05-16T09:30:50.175Z,19.6
2018-05-16T09:31:57.404Z,19.3
2018-05-16T09:33:04.598Z,19.2
2018-05-16T09:34:11.538Z,19.3
2018-05-16T09:35:18.753Z,19.4
2018-05-16T09:36:25.988Z,19.9
2018-05-16T09:37:33.202Z,20.2
2018-05-16T09:38:40.418Z,20.6
2018-05-16T09:39:47.640Z,20.6
2018-05-16T09:40:54.581Z,20.2
2018-05-16T09:42:01.793Z,19.8
2018-05-16T09:43:09.003Z,19.3
2018-05-16T09:44:16.217Z,18.9
2018-05-16T09:45:23.433Z,18.8
2018-05-16T09:46:30.642Z,19
2018-05-16T09:47:37.855Z,18.9
2018-05-16T09:48:44.790Z,18.6
2018-05-16T09:49:52.006Z,18.5
2018-05-16T09:50:59.218Z,18.5
2018-05-16T09:52:06.155Z,18.5
2018-05-16T09:53:13.375Z,18.6
2018-05-16T09:54:20.585Z,18.8
2018-05-16T09:55:27.796Z,19.4
2018-05-16T09:56:35.072Z,19.7
2018-05-16T09:57:42.299Z,19.6
2018-05-16T09:58:49.739Z,19.4
2018-05-16T09:59:56.948Z,19.6
2018-05-16T10:01:03.890Z,19.8
2018-05-16T10:02:11.100Z,19.8
2018-05-16T10:03:18.315Z,19.9
2018-05-16T10:04:25.543Z,20.5
2018-05-16T10:05:32.750Z,20.7
2018-05-16T10:06:39.977Z,20.4
2018-05-16T10:07:47.182Z,20.2
2018-05-16T10:08:54.402Z,20.1
2018-05-16T10:10:01.607Z,20.4
2018-05-16T10:11:08.817Z,20.8
2018-05-16T10:12:16.025Z,21.1
2018-05-16T10:13:22.967Z,21.5
2018-05-16T10:14:30.174Z,21.3
2018-05-16T10:15:37.388Z,21.4
2018-05-16T10:16:44.822Z,20.8
2018-05-16T10:17:51.754Z,20.5
2018-05-16T10:18:58.958Z,20.3
2018-05-16T10:20:06.223Z,19.9
2018-05-16T10:21:13.739Z,19.8
2018-05-16T10:22:20.994Z,19.9
2018-05-16T10:23:27.938Z,19.9
2018-05-16T10:24:35.150Z,20.2
2018-05-16T10:25:42.367Z,20.3
2018-05-16T10:26:49.578Z,20.2
2018-05-16T10:27:56.795Z,19.6
2018-05-16T10:29:03.748Z,19.3
2018-05-16T10:30:10.958Z,18.9
2018-05-16T10:31:18.166Z,18.8
2018-05-16T10:32:25.246Z,18.6
2018-05-16T10:33:32.461Z,18.3
2018-05-16T10:34:39.868Z,18.5
2018-05-16T10:35:46.718Z,18.8
2018-05-16T10:36:53.927Z,18.8
2018-05-16T10:38:01.143Z,18.8
2018-05-16T10:39:08.355Z,18.6
2018-05-16T10:40:15.565Z,18.5
2018-05-16T10:41:22.863Z,18.5
2018-05-16T10:42:30.088Z,18.5
2018-05-16T10:43:37.299Z,18.4
2018-05-16T10:44:44.515Z,18.6
2018-05-16T10:45:51.726Z,18.7
2018-05-16T10:46:58.937Z,19
2018-05-16T10:48:06.164Z,19.1
2018-05-16T10:49:13.362Z,19.4
2018-05-16T10:50:20.579Z,19.5
2018-05-16T10:51:27.794Z,19.3
2018-05-16T10:52:35.004Z,19.1
2018-05-16T10:53:42.214Z,18.9
2018-05-16T10:54:49.430Z,19
2018-05-16T10:55:56.630Z,19.1
2018-05-16T10:57:03.838Z,19.3
2018-05-16T10:58:11.051Z,19.3
2018-05-16T10:59:18.261Z,19.3
2018-05-16T11:00:25.479Z,19.3
2018-05-16T11:01:32.142Z,19.2
2018-05-16T11:02:39.054Z,19.3
2018-05-16T11:03:46.267Z,19.4
2018-05-16T11:04:53.700Z,19.4
2018-05-16T11:06:00.914Z,19.4
2018-05-16T11:07:08.127Z,19.5
2018-05-16T11:08:15.061Z,19.5
2018-05-16T11:09:22.274Z,19.3
2018-05-16T11:10:29.224Z,18.5
2018-05-16T11:11:36.641Z,18.1
2018-05-16T11:12:43.846Z,18.1
2018-05-16T11:13:51.060Z,18
2018-05-16T11:14:58.269Z,18.1
2018-05-16T11:16:05.694Z,18.2
2018-05-16T11:17:12.909Z,18.3
2018-05-16T11:18:20.119Z,18.5
2018-05-16T11:19:27.328Z,18.7
2018-05-16T11:20:34.543Z,18.8
2018-05-16T11:21:41.792Z,18.9
2018-05-16T11:22:49.006Z,19.1
2018-05-16T11:23:56.219Z,19.1
2018-05-16T11:25:03.430Z,19
2018-05-16T11:26:10.361Z,18.9
2018-05-16T11:27:17.643Z,19
2018-05-16T11:28:24.851Z,19.1
2018-05-16T11:29:32.083Z,19.3
2018-05-16T11:30:39.296Z,19.5
2018-05-16T11:31:46.229Z,19.8
2018-05-16T11:32:53.433Z,19.9
2018-05-16T11:34:00.645Z,20
2018-05-16T11:35:07.943Z,20.1
2018-05-16T11:36:15.158Z,20.1
2018-05-16T11:37:22.359Z,19.9
2018-05-16T11:38:29.573Z,19.6
2018-05-16T11:39:36.783Z,19.4
2018-05-16T11:40:44.001Z,19.3
2018-05-16T11:41:51.223Z,19.3
2018-05-16T11:42:58.428Z,19.4
2018-05-16T11:44:05.638Z,19.5
2018-05-16T11:45:12.860Z,19.8
2018-05-16T11:46:19.542Z,19.9
2018-05-16T11:47:26.757Z,20.1
2018-05-16T11:48:33.691Z,19.8
2018-05-16T11:49:40.897Z,19.7
2018-05-16T11:50:48.111Z,19.5
2018-05-16T11:51:55.321Z,19.3
2018-05-16T11:53:02.529Z,19.3
2018-05-16T11:54:09.740Z,19.5
2018-05-16T11:55:16.951Z,19.5
2018-05-16T11:56:24.161Z,19.5
2018-05-16T11:57:31.376Z,19.6
2018-05-16T11:58:38.595Z,19.7
2018-05-16T11:59:45.799Z,19.7
2018-05-16T12:00:53.016Z,19.8
2018-05-16T12:02:00.225Z,19.5
2018-05-16T12:03:07.433Z,19
2018-05-16T12:04:14.640Z,18.8
2018-05-16T12:05:21.847Z,18.5
2018-05-16T12:06:29.059Z,18.2
2018-05-16T12:07:36.264Z,18.2
2018-05-16T12:08:43.471Z,18.3
2018-05-16T12:09:50.680Z,18.4
2018-05-16T12:10:57.968Z,18.5
2018-05-16T12:12:05.173Z,18.6
2018-05-16T12:13:12.384Z,18.7
2018-05-16T12:14:19.614Z,18.8
2018-05-16T12:15:26.840Z,18.7
2018-05-16T12:16:33.503Z,18.6
2018-05-16T12:17:40.707Z,18.7
2018-05-16T12:18:47.647Z,18.6
2018-05-16T12:19:54.899Z,18.6
2018-05-16T12:21:02.123Z,18.6
2018-05-16T12:22:09.332Z,18.6
2018-05-16T12:23:16.546Z,18.7
2018-05-16T12:24:23.761Z,18.9
2018-05-16T12:25:30.972Z,19.1
2018-05-16T12:26:38.190Z,19.3
2018-05-16T12:27:45.141Z,19.3
2018-05-16T12:28:52.480Z,19.4
2018-05-16T12:29:59.554Z,19.6
2018-05-16T12:31:06.489Z,19.8
2018-05-16T12:32:13.698Z,19.9
2018-05-16T12:33:20.634Z,19.9
2018-05-16T12:34:27.572Z,20
2018-05-16T12:35:34.785Z,20.1
2018-05-16T12:36:41.848Z,20
2018-05-16T12:37:49.338Z,20
2018-05-16T12:38:56.556Z,20
2018-05-16T12:40:03.769Z,20
2018-05-16T12:41:10.978Z,20.1
2018-05-16T12:42:18.207Z,20
2018-05-16T12:43:25.418Z,19.9
2018-05-16T12:44:32.631Z,19.9
2018-05-16T12:45:41.089Z,19.8
2018-05-16T12:46:48.305Z,19.7
2018-05-16T12:47:54.968Z,19.5
2018-05-16T12:49:02.177Z,19.2
2018-05-16T12:50:09.387Z,19
2018-05-16T12:51:16.602Z,18.7
2018-05-16T12:52:23.821Z,18.7
2018-05-16T12:53:31.031Z,19.1
2018-05-16T12:54:38.247Z,19.4
2018-05-16T12:55:45.555Z,19.7
2018-05-16T12:56:53.024Z,19.7
2018-05-16T12:58:00.237Z,19.9
2018-05-16T12:59:07.452Z,20.1
2018-05-16T13:00:14.659Z,19.8
2018-05-16T13:01:21.924Z,19.6
2018-05-16T13:02:29.247Z,19.5
2018-05-16T13:03:36.455Z,19.5
2018-05-16T13:04:43.669Z,19.6
2018-05-16T13:05:50.600Z,19.7
2018-05-16T13:06:57.838Z,19.5
2018-05-16T13:08:04.845Z,19.4
2018-05-16T13:09:12.055Z,19.4
2018-05-16T13:10:19.273Z,19.4
2018-05-16T13:11:26.485Z,19.5
2018-05-16T13:12:33.698Z,19.8
2018-05-16T13:13:40.897Z,20
2018-05-16T13:14:47.840Z,20
2018-05-16T13:15:55.052Z,20.2
2018-05-16T13:17:02.268Z,20.2
2018-05-16T13:18:09.739Z,20.3
2018-05-16T13:19:17.101Z,20.2
2018-05-16T13:20:24.311Z,20.1
2018-05-16T13:21:31.699Z,19.6
2018-05-16T13:22:39.128Z,19.4
2018-05-16T13:23:46.351Z,19.4
2018-05-16T13:24:53.285Z,19.4
2018-05-16T13:26:00.224Z,19.4
2018-05-16T13:27:07.438Z,19.3
2018-05-16T13:28:14.647Z,19.2
2018-05-16T13:29:21.576Z,19.1
2018-05-16T13:30:28.514Z,18.9
2018-05-16T13:31:35.725Z,18.7
2018-05-16T13:32:42.389Z,18.7
2018-05-16T13:33:49.616Z,18.7
2018-05-16T13:34:56.830Z,18.7
2018-05-16T13:36:04.047Z,18.5
2018-05-16T13:37:11.263Z,18.5
2018-05-16T13:38:18.489Z,18.4
2018-05-16T13:39:25.693Z,18.5
2018-05-16T13:40:32.904Z,18.6
2018-05-16T13:41:40.151Z,18.9
2018-05-16T13:42:47.093Z,18.7
2018-05-16T13:43:54.311Z,18.7
2018-05-16T13:45:01.522Z,18.8
2018-05-16T13:46:08.452Z,19
2018-05-16T13:47:15.403Z,19.1
2018-05-16T13:48:22.607Z,19.1
2018-05-16T13:49:29.548Z,19.1
2018-05-16T13:50:36.767Z,19.1
2018-05-16T13:51:43.980Z,18.9
2018-05-16T13:52:50.923Z,18.5
2018-05-16T13:53:58.143Z,18.5
2018-05-16T13:55:05.076Z,18.3
2018-05-16T13:56:12.013Z,18.5
2018-05-16T13:57:18.989Z,18.6
2018-05-16T13:58:26.203Z,18.8
2018-05-16T13:59:33.411Z,19
2018-05-16T14:00:40.350Z,19
2018-05-16T14:01:47.566Z,19.1
2018-05-16T14:02:54.779Z,19.3
2018-05-16T14:04:02.006Z,19.4
2018-05-16T14:05:09.212Z,19.3
2018-05-16T14:06:16.429Z,19.3
2018-05-16T14:07:23.641Z,19.4
2018-05-16T14:08:30.858Z,19.6
2018-05-16T14:09:38.139Z,19.9
2018-05-16T14:10:45.349Z,19.9
2018-05-16T14:11:52.564Z,19.9
2018-05-16T14:12:59.772Z,19.9
2018-05-16T14:14:06.984Z,20
2018-05-16T14:15:14.320Z,20.2
2018-05-16T14:16:21.323Z,20.4
2018-05-16T14:17:28.538Z,20.5
2018-05-16T14:18:35.742Z,20.5
2018-05-16T14:19:43.016Z,20.4
2018-05-16T14:20:49.956Z,20.5
2018-05-16T14:21:57.231Z,20.5
2018-05-16T14:23:04.441Z,20.6
2018-05-16T14:24:11.661Z,19.7
2018-05-16T14:25:18.865Z,19.7
2018-05-16T14:26:25.796Z,19.9
2018-05-16T14:27:33.005Z,20.3
2018-05-16T14:28:40.212Z,19.9
2018-05-16T14:29:47.420Z,19.9
2018-05-16T14:30:54.375Z,19.7
2018-05-16T14:32:01.584Z,19.4
2018-05-16T14:33:08.796Z,19.5
2018-05-16T14:34:16.007Z,19.8
2018-05-16T14:35:22.943Z,19.4
2018-05-16T14:36:29.884Z,19.4
2018-05-16T14:37:36.824Z,19.6
2018-05-16T14:38:44.035Z,19.8
2018-05-16T14:39:51.243Z,19.8
2018-05-16T14:40:58.179Z,20
2018-05-16T14:42:05.387Z,20.3
2018-05-16T14:43:12.612Z,20.4
2018-05-16T14:44:19.816Z,20.5
2018-05-16T14:45:27.025Z,20.7
2018-05-16T14:46:34.239Z,20.8
2018-05-16T14:47:41.471Z,20.9
2018-05-16T14:48:48.674Z,20.8
2018-05-16T14:49:55.880Z,21
2018-05-16T14:51:03.093Z,21.2
2018-05-16T14:52:10.030Z,21.3
2018-05-16T14:53:17.240Z,21.3
2018-05-16T14:54:24.457Z,21.2
2018-05-16T14:55:31.728Z,20.9
2018-05-16T14:56:39.018Z,20.8
2018-05-16T14:57:46.231Z,20.7
2018-05-16T14:58:53.442Z,20.2
2018-05-16T15:00:00.374Z,20.1
2018-05-16T15:01:07.585Z,20.1